sensor_id;sensor_type;location;lat;lon;timestamp;P1;durP1;ratioP1;P2;durP2;ratioP2
49972;SDS011;65693;49.798;10.968;2023-03-01T00:02:22;8.45;;;6.53;;
49972;SDS011;65693;49.798;10.968;2023-03-01T00:04:52;8.48;;;6.30;;
49972;SDS011;65693;49.798;10.968;2023-03-01T00:07:24;9.07;;;6.38;;
49972;SDS011;65693;49.798;10.968;2023-03-01T00:09:53;8.13;;;5.93;;
49972;SDS011;65693;49.798;10.968;2023-03-01T00:12:26;9.27;;;6.38;;
49972;SDS011;65693;49.798;10.968;2023-03-01T00:14:53;8.90;;;6.05;;
49972;SDS011;65693;49.798;10.968;2023-03-01T00:17:23;8.65;;;6.25;;
49972;SDS011;65693;49.798;10.968;2023-03-01T00:19:49;8.70;;;6.00;;
49972;SDS011;65693;49.798;10.968;2023-03-01T00:22:16;8.40;;;6.15;;
49972;SDS011;65693;49.798;10.968;2023-03-01T00:24:44;8.50;;;5.93;;
49972;SDS011;65693;49.798;10.968;2023-03-01T00:27:10;10.30;;;6.38;;
49972;SDS011;65693;49.798;10.968;2023-03-01T00:29:37;8.90;;;6.75;;
49972;SDS011;65693;49.798;10.968;2023-03-01T00:32:05;8.18;;;6.18;;
49972;SDS011;65693;49.798;10.968;2023-03-01T00:34:33;8.20;;;5.82;;
49972;SDS011;65693;49.798;10.968;2023-03-01T00:37:02;8.27;;;6.28;;
49972;SDS011;65693;49.798;10.968;2023-03-01T00:39:30;8.82;;;6.13;;
49972;SDS011;65693;49.798;10.968;2023-03-01T00:42:11;8.30;;;6.05;;
49972;SDS011;65693;49.798;10.968;2023-03-01T00:44:41;8.48;;;6.22;;
49972;SDS011;65693;49.798;10.968;2023-03-01T00:47:11;8.70;;;5.97;;
49972;SDS011;65693;49.798;10.968;2023-03-01T00:49:46;8.70;;;6.40;;
49972;SDS011;65693;49.798;10.968;2023-03-01T00:52:16;8.52;;;6.38;;
49972;SDS011;65693;49.798;10.968;2023-03-01T00:54:44;9.52;;;6.55;;
49972;SDS011;65693;49.798;10.968;2023-03-01T00:57:27;8.13;;;5.38;;
49972;SDS011;65693;49.798;10.968;2023-03-01T00:59:57;8.43;;;6.53;;
49972;SDS011;65693;49.798;10.968;2023-03-01T01:02:23;9.00;;;6.70;;
49972;SDS011;65693;49.798;10.968;2023-03-01T01:04:50;9.30;;;6.20;;
49972;SDS011;65693;49.798;10.968;2023-03-01T01:07:16;6.97;;;5.40;;
49972;SDS011;65693;49.798;10.968;2023-03-01T01:09:45;8.98;;;6.13;;
49972;SDS011;65693;49.798;10.968;2023-03-01T01:12:11;7.93;;;6.00;;
49972;SDS011;65693;49.798;10.968;2023-03-01T01:14:39;9.13;;;6.22;;
49972;SDS011;65693;49.798;10.968;2023-03-01T01:17:06;8.38;;;5.95;;
49972;SDS011;65693;49.798;10.968;2023-03-01T01:19:32;9.52;;;6.40;;
49972;SDS011;65693;49.798;10.968;2023-03-01T01:21:59;8.55;;;5.85;;
49972;SDS011;65693;49.798;10.968;2023-03-01T01:24:29;10.27;;;6.55;;
49972;SDS011;65693;49.798;10.968;2023-03-01T01:26:59;8.10;;;6.13;;
49972;SDS011;65693;49.798;10.968;2023-03-01T01:29:29;8.48;;;6.03;;
49972;SDS011;65693;49.798;10.968;2023-03-01T01:32:05;9.82;;;6.82;;
49972;SDS011;65693;49.798;10.968;2023-03-01T01:34:35;8.23;;;5.88;;
49972;SDS011;65693;49.798;10.968;2023-03-01T01:37:11;8.40;;;6.38;;
49972;SDS011;65693;49.798;10.968;2023-03-01T01:39:52;8.68;;;6.70;;
49972;SDS011;65693;49.798;10.968;2023-03-01T01:42:19;9.00;;;5.97;;
49972;SDS011;65693;49.798;10.968;2023-03-01T01:47:51;8.32;;;6.00;;
49972;SDS011;65693;49.798;10.968;2023-03-01T01:50:20;9.60;;;6.25;;
49972;SDS011;65693;49.798;10.968;2023-03-01T01:52:48;8.20;;;6.32;;
49972;SDS011;65693;49.798;10.968;2023-03-01T01:55:19;8.20;;;6.18;;
49972;SDS011;65693;49.798;10.968;2023-03-01T01:57:50;9.77;;;6.60;;
49972;SDS011;65693;49.798;10.968;2023-03-01T02:00:23;8.27;;;6.03;;
49972;SDS011;65693;49.798;10.968;2023-03-01T02:02:56;10.40;;;7.00;;
49972;SDS011;65693;49.798;10.968;2023-03-01T02:05:36;8.35;;;6.25;;
49972;SDS011;65693;49.798;10.968;2023-03-01T02:08:14;8.93;;;6.07;;
49972;SDS011;65693;49.798;10.968;2023-03-01T02:10:48;8.02;;;5.72;;
49972;SDS011;65693;49.798;10.968;2023-03-01T02:13:18;9.18;;;6.28;;
49972;SDS011;65693;49.798;10.968;2023-03-01T02:15:48;8.50;;;5.85;;
49972;SDS011;65693;49.798;10.968;2023-03-01T02:18:18;9.30;;;6.22;;
49972;SDS011;65693;49.798;10.968;2023-03-01T02:20:50;8.55;;;6.05;;
49972;SDS011;65693;49.798;10.968;2023-03-01T02:23:27;7.75;;;6.10;;
49972;SDS011;65693;49.798;10.968;2023-03-01T02:25:59;10.05;;;5.95;;
49972;SDS011;65693;49.798;10.968;2023-03-01T02:28:36;8.07;;;6.15;;
49972;SDS011;65693;49.798;10.968;2023-03-01T02:31:04;8.55;;;6.07;;
49972;SDS011;65693;49.798;10.968;2023-03-01T02:33:52;8.88;;;6.05;;
49972;SDS011;65693;49.798;10.968;2023-03-01T02:36:30;7.85;;;5.93;;
49972;SDS011;65693;49.798;10.968;2023-03-01T02:39:03;7.63;;;5.47;;
49972;SDS011;65693;49.798;10.968;2023-03-01T02:41:34;9.32;;;6.80;;
49972;SDS011;65693;49.798;10.968;2023-03-01T02:44:10;8.23;;;6.00;;
49972;SDS011;65693;49.798;10.968;2023-03-01T02:46:43;7.93;;;6.28;;
49972;SDS011;65693;49.798;10.968;2023-03-01T02:49:17;8.13;;;6.20;;
49972;SDS011;65693;49.798;10.968;2023-03-01T02:51:47;8.85;;;5.90;;
49972;SDS011;65693;49.798;10.968;2023-03-01T02:54:52;8.48;;;6.22;;
49972;SDS011;65693;49.798;10.968;2023-03-01T02:57:26;7.90;;;6.55;;
49972;SDS011;65693;49.798;10.968;2023-03-01T03:00:11;9.27;;;6.28;;
49972;SDS011;65693;49.798;10.968;2023-03-01T03:02:45;8.63;;;7.00;;
49972;SDS011;65693;49.798;10.968;2023-03-01T03:05:14;7.45;;;6.05;;
49972;SDS011;65693;49.798;10.968;2023-03-01T03:07:43;6.32;;;5.45;;
49972;SDS011;65693;49.798;10.968;2023-03-01T03:10:13;9.48;;;6.65;;
49972;SDS011;65693;49.798;10.968;2023-03-01T03:12:48;7.72;;;5.70;;
49972;SDS011;65693;49.798;10.968;2023-03-01T03:15:18;8.60;;;6.70;;
49972;SDS011;65693;49.798;10.968;2023-03-01T03:17:46;8.55;;;6.13;;
49972;SDS011;65693;49.798;10.968;2023-03-01T03:20:15;7.93;;;6.00;;
49972;SDS011;65693;49.798;10.968;2023-03-01T03:22:46;7.85;;;5.95;;
49972;SDS011;65693;49.798;10.968;2023-03-01T03:25:16;9.00;;;6.13;;
49972;SDS011;65693;49.798;10.968;2023-03-01T03:27:47;7.97;;;6.10;;
49972;SDS011;65693;49.798;10.968;2023-03-01T03:30:23;7.95;;;6.15;;
49972;SDS011;65693;49.798;10.968;2023-03-01T03:32:54;8.85;;;6.45;;
49972;SDS011;65693;49.798;10.968;2023-03-01T03:35:23;7.93;;;6.00;;
49972;SDS011;65693;49.798;10.968;2023-03-01T03:37:53;9.43;;;6.38;;
49972;SDS011;65693;49.798;10.968;2023-03-01T03:40:33;8.38;;;6.35;;
49972;SDS011;65693;49.798;10.968;2023-03-01T03:43:03;9.00;;;6.72;;
49972;SDS011;65693;49.798;10.968;2023-03-01T03:45:35;8.15;;;5.93;;
49972;SDS011;65693;49.798;10.968;2023-03-01T03:48:04;8.25;;;6.30;;
49972;SDS011;65693;49.798;10.968;2023-03-01T03:50:33;8.15;;;5.70;;
49972;SDS011;65693;49.798;10.968;2023-03-01T03:53:00;8.52;;;6.20;;
49972;SDS011;65693;49.798;10.968;2023-03-01T03:55:31;8.10;;;5.93;;
49972;SDS011;65693;49.798;10.968;2023-03-01T03:58:00;7.50;;;5.75;;
49972;SDS011;65693;49.798;10.968;2023-03-01T04:00:39;8.75;;;5.80;;
49972;SDS011;65693;49.798;10.968;2023-03-01T04:03:08;9.13;;;6.97;;
49972;SDS011;65693;49.798;10.968;2023-03-01T04:05:46;8.82;;;6.50;;
49972;SDS011;65693;49.798;10.968;2023-03-01T04:08:17;7.85;;;5.88;;
49972;SDS011;65693;49.798;10.968;2023-03-01T04:10:57;9.50;;;6.28;;
49972;SDS011;65693;49.798;10.968;2023-03-01T04:13:27;7.60;;;6.30;;
49972;SDS011;65693;49.798;10.968;2023-03-01T04:16:00;9.68;;;6.20;;
49972;SDS011;65693;49.798;10.968;2023-03-01T04:18:31;9.05;;;6.80;;
49972;SDS011;65693;49.798;10.968;2023-03-01T04:21:01;8.20;;;6.53;;
49972;SDS011;65693;49.798;10.968;2023-03-01T04:23:29;8.73;;;5.85;;
49972;SDS011;65693;49.798;10.968;2023-03-01T04:25:57;8.70;;;5.97;;
49972;SDS011;65693;49.798;10.968;2023-03-01T04:28:27;8.38;;;6.15;;
49972;SDS011;65693;49.798;10.968;2023-03-01T04:30:55;9.77;;;6.20;;
49972;SDS011;65693;49.798;10.968;2023-03-01T04:33:42;9.18;;;6.43;;
49972;SDS011;65693;49.798;10.968;2023-03-01T04:36:13;8.25;;;6.43;;
49972;SDS011;65693;49.798;10.968;2023-03-01T04:38:44;8.30;;;6.10;;
49972;SDS011;65693;49.798;10.968;2023-03-01T04:41:21;7.63;;;6.07;;
49972;SDS011;65693;49.798;10.968;2023-03-01T04:43:49;9.07;;;6.55;;
49972;SDS011;65693;49.798;10.968;2023-03-01T04:46:20;9.65;;;6.53;;
49972;SDS011;65693;49.798;10.968;2023-03-01T04:48:51;9.50;;;6.13;;
49972;SDS011;65693;49.798;10.968;2023-03-01T04:51:25;8.60;;;6.43;;
49972;SDS011;65693;49.798;10.968;2023-03-01T04:53:52;9.15;;;6.28;;
49972;SDS011;65693;49.798;10.968;2023-03-01T04:56:21;10.02;;;7.10;;
49972;SDS011;65693;49.798;10.968;2023-03-01T04:58:52;8.30;;;6.20;;
49972;SDS011;65693;49.798;10.968;2023-03-01T05:01:22;8.77;;;6.80;;
49972;SDS011;65693;49.798;10.968;2023-03-01T05:03:52;10.40;;;6.45;;
49972;SDS011;65693;49.798;10.968;2023-03-01T05:06:20;8.40;;;6.18;;
49972;SDS011;65693;49.798;10.968;2023-03-01T05:08:48;8.15;;;6.05;;
49972;SDS011;65693;49.798;10.968;2023-03-01T05:11:18;8.40;;;6.10;;
49972;SDS011;65693;49.798;10.968;2023-03-01T05:13:47;9.45;;;7.03;;
49972;SDS011;65693;49.798;10.968;2023-03-01T05:16:15;8.25;;;6.85;;
49972;SDS011;65693;49.798;10.968;2023-03-01T05:18:41;10.35;;;6.55;;
49972;SDS011;65693;49.798;10.968;2023-03-01T05:21:13;9.50;;;7.25;;
49972;SDS011;65693;49.798;10.968;2023-03-01T05:23:46;9.57;;;6.68;;
49972;SDS011;65693;49.798;10.968;2023-03-01T05:26:14;9.02;;;6.05;;
49972;SDS011;65693;49.798;10.968;2023-03-01T05:28:42;9.68;;;6.38;;
49972;SDS011;65693;49.798;10.968;2023-03-01T05:31:10;10.52;;;6.50;;
49972;SDS011;65693;49.798;10.968;2023-03-01T05:33:40;9.43;;;6.75;;
49972;SDS011;65693;49.798;10.968;2023-03-01T05:36:14;9.02;;;6.63;;
49972;SDS011;65693;49.798;10.968;2023-03-01T05:38:44;8.15;;;6.35;;
49972;SDS011;65693;49.798;10.968;2023-03-01T05:41:14;9.07;;;6.53;;
49972;SDS011;65693;49.798;10.968;2023-03-01T05:43:43;8.73;;;6.70;;
49972;SDS011;65693;49.798;10.968;2023-03-01T05:46:12;9.63;;;6.75;;
49972;SDS011;65693;49.798;10.968;2023-03-01T05:48:40;9.95;;;6.90;;
49972;SDS011;65693;49.798;10.968;2023-03-01T05:51:07;8.82;;;6.32;;
49972;SDS011;65693;49.798;10.968;2023-03-01T05:53:50;8.85;;;6.63;;
49972;SDS011;65693;49.798;10.968;2023-03-01T05:56:19;8.60;;;6.68;;
49972;SDS011;65693;49.798;10.968;2023-03-01T05:58:48;8.77;;;6.50;;
49972;SDS011;65693;49.798;10.968;2023-03-01T06:01:15;10.00;;;6.93;;
49972;SDS011;65693;49.798;10.968;2023-03-01T06:03:42;8.70;;;6.70;;
49972;SDS011;65693;49.798;10.968;2023-03-01T06:06:11;8.68;;;6.22;;
49972;SDS011;65693;49.798;10.968;2023-03-01T06:08:39;8.13;;;6.18;;
49972;SDS011;65693;49.798;10.968;2023-03-01T06:11:07;8.30;;;6.28;;
49972;SDS011;65693;49.798;10.968;2023-03-01T06:13:34;9.77;;;6.45;;
49972;SDS011;65693;49.798;10.968;2023-03-01T06:16:03;12.45;;;7.22;;
49972;SDS011;65693;49.798;10.968;2023-03-01T06:18:31;9.63;;;6.30;;
49972;SDS011;65693;49.798;10.968;2023-03-01T06:20:59;8.90;;;6.60;;
49972;SDS011;65693;49.798;10.968;2023-03-01T06:23:28;9.40;;;6.45;;
49972;SDS011;65693;49.798;10.968;2023-03-01T06:25:56;13.85;;;10.32;;
49972;SDS011;65693;49.798;10.968;2023-03-01T06:28:37;13.90;;;10.18;;
49972;SDS011;65693;49.798;10.968;2023-03-01T06:31:07;12.02;;;9.88;;
49972;SDS011;65693;49.798;10.968;2023-03-01T06:33:36;15.93;;;12.32;;
49972;SDS011;65693;49.798;10.968;2023-03-01T06:36:14;16.67;;;11.15;;
49972;SDS011;65693;49.798;10.968;2023-03-01T06:38:47;16.80;;;11.23;;
49972;SDS011;65693;49.798;10.968;2023-03-01T06:41:18;14.27;;;9.88;;
49972;SDS011;65693;49.798;10.968;2023-03-01T06:43:48;14.77;;;10.40;;
49972;SDS011;65693;49.798;10.968;2023-03-01T06:46:20;17.38;;;10.65;;
49972;SDS011;65693;49.798;10.968;2023-03-01T06:48:48;13.85;;;9.98;;
49972;SDS011;65693;49.798;10.968;2023-03-01T06:51:18;15.73;;;9.82;;
49972;SDS011;65693;49.798;10.968;2023-03-01T06:53:46;14.45;;;10.77;;
49972;SDS011;65693;49.798;10.968;2023-03-01T06:56:21;14.20;;;10.25;;
49972;SDS011;65693;49.798;10.968;2023-03-01T06:58:54;15.70;;;10.95;;
49972;SDS011;65693;49.798;10.968;2023-03-01T07:01:23;13.57;;;9.85;;
49972;SDS011;65693;49.798;10.968;2023-03-01T07:03:51;12.65;;;9.80;;
49972;SDS011;65693;49.798;10.968;2023-03-01T07:06:21;14.02;;;10.02;;
49972;SDS011;65693;49.798;10.968;2023-03-01T07:08:56;13.75;;;9.93;;
49972;SDS011;65693;49.798;10.968;2023-03-01T07:11:25;12.90;;;9.05;;
49972;SDS011;65693;49.798;10.968;2023-03-01T07:13:58;14.13;;;10.18;;
49972;SDS011;65693;49.798;10.968;2023-03-01T07:16:26;13.85;;;9.20;;
49972;SDS011;65693;49.798;10.968;2023-03-01T07:18:53;12.25;;;8.52;;
49972;SDS011;65693;49.798;10.968;2023-03-01T07:21:23;12.50;;;9.50;;
49972;SDS011;65693;49.798;10.968;2023-03-01T07:23:50;11.18;;;8.48;;
49972;SDS011;65693;49.798;10.968;2023-03-01T07:26:18;13.85;;;9.85;;
49972;SDS011;65693;49.798;10.968;2023-03-01T07:28:47;14.00;;;9.35;;
49972;SDS011;65693;49.798;10.968;2023-03-01T07:31:29;13.40;;;9.70;;
49972;SDS011;65693;49.798;10.968;2023-03-01T07:33:56;14.02;;;8.88;;
49972;SDS011;65693;49.798;10.968;2023-03-01T07:36:23;12.55;;;8.93;;
49972;SDS011;65693;49.798;10.968;2023-03-01T07:38:52;13.30;;;8.98;;
49972;SDS011;65693;49.798;10.968;2023-03-01T07:41:20;11.48;;;8.55;;
49972;SDS011;65693;49.798;10.968;2023-03-01T07:43:49;12.93;;;8.57;;
49972;SDS011;65693;49.798;10.968;2023-03-01T07:46:27;12.27;;;8.93;;
49972;SDS011;65693;49.798;10.968;2023-03-01T07:48:54;12.07;;;8.60;;
49972;SDS011;65693;49.798;10.968;2023-03-01T07:51:24;13.32;;;9.40;;
49972;SDS011;65693;49.798;10.968;2023-03-01T07:53:57;12.10;;;8.73;;
49972;SDS011;65693;49.798;10.968;2023-03-01T07:56:25;11.85;;;8.80;;
49972;SDS011;65693;49.798;10.968;2023-03-01T07:58:53;13.00;;;9.20;;
49972;SDS011;65693;49.798;10.968;2023-03-01T08:01:22;12.60;;;8.98;;
49972;SDS011;65693;49.798;10.968;2023-03-01T08:03:55;11.45;;;8.23;;
49972;SDS011;65693;49.798;10.968;2023-03-01T08:06:23;11.13;;;7.90;;
49972;SDS011;65693;49.798;10.968;2023-03-01T08:08:52;12.10;;;8.00;;
49972;SDS011;65693;49.798;10.968;2023-03-01T08:11:21;11.75;;;8.73;;
49972;SDS011;65693;49.798;10.968;2023-03-01T08:13:51;11.80;;;7.90;;
49972;SDS011;65693;49.798;10.968;2023-03-01T08:16:20;12.80;;;9.38;;
49972;SDS011;65693;49.798;10.968;2023-03-01T08:18:49;12.38;;;8.63;;
49972;SDS011;65693;49.798;10.968;2023-03-01T08:21:29;11.77;;;8.35;;
49972;SDS011;65693;49.798;10.968;2023-03-01T08:24:01;12.00;;;8.15;;
49972;SDS011;65693;49.798;10.968;2023-03-01T08:26:29;12.45;;;8.20;;
49972;SDS011;65693;49.798;10.968;2023-03-01T08:29:01;11.05;;;8.20;;
49972;SDS011;65693;49.798;10.968;2023-03-01T08:31:31;12.20;;;8.70;;
49972;SDS011;65693;49.798;10.968;2023-03-01T08:34:04;11.52;;;8.48;;
49972;SDS011;65693;49.798;10.968;2023-03-01T08:36:43;11.88;;;8.10;;
49972;SDS011;65693;49.798;10.968;2023-03-01T08:39:16;12.68;;;8.00;;
49972;SDS011;65693;49.798;10.968;2023-03-01T08:41:44;11.60;;;8.13;;
49972;SDS011;65693;49.798;10.968;2023-03-01T08:44:13;11.25;;;7.75;;
49972;SDS011;65693;49.798;10.968;2023-03-01T08:46:47;11.77;;;8.23;;
49972;SDS011;65693;49.798;10.968;2023-03-01T08:49:19;12.73;;;8.52;;
49972;SDS011;65693;49.798;10.968;2023-03-01T08:51:52;10.65;;;7.80;;
49972;SDS011;65693;49.798;10.968;2023-03-01T08:54:21;12.55;;;7.75;;
49972;SDS011;65693;49.798;10.968;2023-03-01T08:56:48;11.90;;;8.45;;
49972;SDS011;65693;49.798;10.968;2023-03-01T08:59:18;12.27;;;8.95;;
49972;SDS011;65693;49.798;10.968;2023-03-01T09:01:48;9.68;;;7.80;;
49972;SDS011;65693;49.798;10.968;2023-03-01T09:04:15;13.18;;;8.55;;
49972;SDS011;65693;49.798;10.968;2023-03-01T09:06:46;13.23;;;8.77;;
49972;SDS011;65693;49.798;10.968;2023-03-01T09:09:17;11.77;;;8.15;;
49972;SDS011;65693;49.798;10.968;2023-03-01T09:11:52;10.25;;;7.47;;
49972;SDS011;65693;49.798;10.968;2023-03-01T09:14:21;11.60;;;8.07;;
49972;SDS011;65693;49.798;10.968;2023-03-01T09:16:52;10.10;;;7.72;;
49972;SDS011;65693;49.798;10.968;2023-03-01T09:19:20;12.18;;;8.25;;
49972;SDS011;65693;49.798;10.968;2023-03-01T09:21:50;11.20;;;8.15;;
49972;SDS011;65693;49.798;10.968;2023-03-01T09:24:23;13.02;;;8.65;;
49972;SDS011;65693;49.798;10.968;2023-03-01T09:26:53;11.60;;;7.95;;
49972;SDS011;65693;49.798;10.968;2023-03-01T09:29:20;11.00;;;7.95;;
49972;SDS011;65693;49.798;10.968;2023-03-01T09:31:48;12.60;;;8.65;;
49972;SDS011;65693;49.798;10.968;2023-03-01T09:34:20;12.20;;;8.95;;
49972;SDS011;65693;49.798;10.968;2023-03-01T09:37:21;10.35;;;7.68;;
49972;SDS011;65693;49.798;10.968;2023-03-01T09:39:58;15.05;;;8.23;;
49972;SDS011;65693;49.798;10.968;2023-03-01T09:42:29;12.25;;;8.35;;
49972;SDS011;65693;49.798;10.968;2023-03-01T09:45:00;12.10;;;8.02;;
49972;SDS011;65693;49.798;10.968;2023-03-01T09:47:31;10.85;;;8.10;;
49972;SDS011;65693;49.798;10.968;2023-03-01T09:50:05;12.38;;;7.93;;
49972;SDS011;65693;49.798;10.968;2023-03-01T09:52:41;12.35;;;8.52;;
49972;SDS011;65693;49.798;10.968;2023-03-01T09:55:29;10.73;;;7.53;;
49972;SDS011;65693;49.798;10.968;2023-03-01T09:58:05;11.20;;;8.18;;
49972;SDS011;65693;49.798;10.968;2023-03-01T10:00:49;11.15;;;8.48;;
49972;SDS011;65693;49.798;10.968;2023-03-01T10:03:16;11.80;;;8.10;;
49972;SDS011;65693;49.798;10.968;2023-03-01T10:05:52;11.75;;;8.30;;
49972;SDS011;65693;49.798;10.968;2023-03-01T10:08:36;10.88;;;8.07;;
49972;SDS011;65693;49.798;10.968;2023-03-01T10:11:19;10.82;;;7.75;;
49972;SDS011;65693;49.798;10.968;2023-03-01T10:13:50;11.52;;;8.25;;
49972;SDS011;65693;49.798;10.968;2023-03-01T10:16:25;12.32;;;8.38;;
49972;SDS011;65693;49.798;10.968;2023-03-01T10:19:00;10.45;;;7.85;;
49972;SDS011;65693;49.798;10.968;2023-03-01T10:21:29;10.13;;;7.95;;
49972;SDS011;65693;49.798;10.968;2023-03-01T10:24:12;12.07;;;7.90;;
49972;SDS011;65693;49.798;10.968;2023-03-01T10:26:47;12.30;;;7.72;;
49972;SDS011;65693;49.798;10.968;2023-03-01T10:29:19;10.65;;;7.65;;
49972;SDS011;65693;49.798;10.968;2023-03-01T10:31:52;10.30;;;7.38;;
49972;SDS011;65693;49.798;10.968;2023-03-01T10:34:27;10.95;;;7.82;;
49972;SDS011;65693;49.798;10.968;2023-03-01T10:37:01;11.35;;;7.57;;
49972;SDS011;65693;49.798;10.968;2023-03-01T10:39:34;10.98;;;7.85;;
49972;SDS011;65693;49.798;10.968;2023-03-01T10:42:17;10.52;;;7.50;;
49972;SDS011;65693;49.798;10.968;2023-03-01T10:44:51;11.13;;;7.80;;
49972;SDS011;65693;49.798;10.968;2023-03-01T10:47:18;11.20;;;7.85;;
49972;SDS011;65693;49.798;10.968;2023-03-01T10:49:54;9.57;;;6.75;;
49972;SDS011;65693;49.798;10.968;2023-03-01T10:52:27;10.32;;;7.18;;
49972;SDS011;65693;49.798;10.968;2023-03-01T10:54:56;10.73;;;7.15;;
49972;SDS011;65693;49.798;10.968;2023-03-01T10:57:29;12.70;;;8.00;;
49972;SDS011;65693;49.798;10.968;2023-03-01T11:00:14;10.40;;;7.50;;
49972;SDS011;65693;49.798;10.968;2023-03-01T11:03:10;9.55;;;7.15;;
49972;SDS011;65693;49.798;10.968;2023-03-01T11:05:50;10.90;;;7.82;;
49972;SDS011;65693;49.798;10.968;2023-03-01T11:08:47;9.82;;;7.18;;
49972;SDS011;65693;49.798;10.968;2023-03-01T11:13:58;11.68;;;7.43;;
49972;SDS011;65693;49.798;10.968;2023-03-01T11:16:30;10.15;;;7.25;;
49972;SDS011;65693;49.798;10.968;2023-03-01T11:19:01;9.73;;;7.07;;
49972;SDS011;65693;49.798;10.968;2023-03-01T11:21:41;10.93;;;7.53;;
49972;SDS011;65693;49.798;10.968;2023-03-01T11:24:15;10.32;;;7.10;;
49972;SDS011;65693;49.798;10.968;2023-03-01T11:26:46;10.05;;;7.07;;
49972;SDS011;65693;49.798;10.968;2023-03-01T11:29:25;11.63;;;7.53;;
49972;SDS011;65693;49.798;10.968;2023-03-01T11:32:01;9.98;;;7.20;;
49972;SDS011;65693;49.798;10.968;2023-03-01T11:34:38;10.77;;;7.50;;
49972;SDS011;65693;49.798;10.968;2023-03-01T11:37:10;10.93;;;7.25;;
49972;SDS011;65693;49.798;10.968;2023-03-01T11:39:43;10.23;;;7.50;;
49972;SDS011;65693;49.798;10.968;2023-03-01T11:42:17;11.48;;;7.90;;
49972;SDS011;65693;49.798;10.968;2023-03-01T11:44:52;14.02;;;7.50;;
49972;SDS011;65693;49.798;10.968;2023-03-01T11:47:30;11.55;;;7.25;;
49972;SDS011;65693;49.798;10.968;2023-03-01T11:50:15;11.40;;;7.90;;
49972;SDS011;65693;49.798;10.968;2023-03-01T11:52:54;11.45;;;8.23;;
49972;SDS011;65693;49.798;10.968;2023-03-01T11:55:36;9.98;;;7.30;;
49972;SDS011;65693;49.798;10.968;2023-03-01T11:58:34;10.68;;;7.45;;
49972;SDS011;65693;49.798;10.968;2023-03-01T12:01:48;10.18;;;7.05;;
49972;SDS011;65693;49.798;10.968;2023-03-01T12:04:38;11.30;;;7.60;;
49972;SDS011;65693;49.798;10.968;2023-03-01T12:07:35;10.05;;;7.22;;
49972;SDS011;65693;49.798;10.968;2023-03-01T12:10:23;9.95;;;7.07;;
49972;SDS011;65693;49.798;10.968;2023-03-01T12:12:58;11.93;;;7.68;;
49972;SDS011;65693;49.798;10.968;2023-03-01T12:16:12;10.93;;;7.60;;
49972;SDS011;65693;49.798;10.968;2023-03-01T12:19:10;11.23;;;7.43;;
49972;SDS011;65693;49.798;10.968;2023-03-01T12:21:52;11.52;;;7.60;;
49972;SDS011;65693;49.798;10.968;2023-03-01T12:24:41;10.27;;;7.15;;
49972;SDS011;65693;49.798;10.968;2023-03-01T12:27:59;9.50;;;7.63;;
49972;SDS011;65693;49.798;10.968;2023-03-01T12:33:47;11.40;;;7.78;;
49972;SDS011;65693;49.798;10.968;2023-03-01T12:36:29;10.85;;;8.02;;
49972;SDS011;65693;49.798;10.968;2023-03-01T12:39:15;12.52;;;7.70;;
49972;SDS011;65693;49.798;10.968;2023-03-01T12:42:04;11.68;;;7.90;;
49972;SDS011;65693;49.798;10.968;2023-03-01T12:44:57;11.65;;;8.18;;
49972;SDS011;65693;49.798;10.968;2023-03-01T12:47:38;9.48;;;7.20;;
49972;SDS011;65693;49.798;10.968;2023-03-01T12:50:15;10.63;;;7.50;;
49972;SDS011;65693;49.798;10.968;2023-03-01T12:52:50;13.43;;;7.72;;
49972;SDS011;65693;49.798;10.968;2023-03-01T12:55:23;11.43;;;8.48;;
49972;SDS011;65693;49.798;10.968;2023-03-01T12:58:06;9.82;;;7.13;;
49972;SDS011;65693;49.798;10.968;2023-03-01T13:00:50;10.02;;;7.10;;
49972;SDS011;65693;49.798;10.968;2023-03-01T13:03:30;12.68;;;8.05;;
49972;SDS011;65693;49.798;10.968;2023-03-01T13:06:12;11.35;;;7.13;;
49972;SDS011;65693;49.798;10.968;2023-03-01T13:08:49;11.25;;;7.25;;
49972;SDS011;65693;49.798;10.968;2023-03-01T13:11:22;11.63;;;7.47;;
49972;SDS011;65693;49.798;10.968;2023-03-01T13:13:49;12.48;;;7.25;;
49972;SDS011;65693;49.798;10.968;2023-03-01T13:16:21;10.93;;;7.50;;
49972;SDS011;65693;49.798;10.968;2023-03-01T13:19:08;11.68;;;8.20;;
49972;SDS011;65693;49.798;10.968;2023-03-01T13:21:45;10.25;;;7.20;;
49972;SDS011;65693;49.798;10.968;2023-03-01T13:24:25;10.18;;;6.97;;
49972;SDS011;65693;49.798;10.968;2023-03-01T13:30:00;10.02;;;7.35;;
49972;SDS011;65693;49.798;10.968;2023-03-01T13:32:42;11.85;;;7.88;;
49972;SDS011;65693;49.798;10.968;2023-03-01T13:35:41;10.15;;;7.40;;
49972;SDS011;65693;49.798;10.968;2023-03-01T13:44:25;10.93;;;8.00;;
49972;SDS011;65693;49.798;10.968;2023-03-01T13:46:56;10.75;;;7.57;;
49972;SDS011;65693;49.798;10.968;2023-03-01T13:49:40;11.55;;;7.82;;
49972;SDS011;65693;49.798;10.968;2023-03-01T13:52:20;10.23;;;7.68;;
49972;SDS011;65693;49.798;10.968;2023-03-01T13:55:00;10.40;;;7.82;;
49972;SDS011;65693;49.798;10.968;2023-03-01T13:57:30;9.88;;;7.13;;
49972;SDS011;65693;49.798;10.968;2023-03-01T14:00:23;11.73;;;7.85;;
49972;SDS011;65693;49.798;10.968;2023-03-01T14:03:01;9.88;;;7.47;;
49972;SDS011;65693;49.798;10.968;2023-03-01T14:05:37;11.98;;;7.90;;
49972;SDS011;65693;49.798;10.968;2023-03-01T14:08:18;9.70;;;7.18;;
49972;SDS011;65693;49.798;10.968;2023-03-01T14:10:53;11.48;;;7.63;;
49972;SDS011;65693;49.798;10.968;2023-03-01T14:13:48;11.60;;;7.70;;
49972;SDS011;65693;49.798;10.968;2023-03-01T14:16:31;11.02;;;8.00;;
49972;SDS011;65693;49.798;10.968;2023-03-01T14:19:10;10.80;;;7.20;;
49972;SDS011;65693;49.798;10.968;2023-03-01T14:21:42;10.88;;;7.70;;
49972;SDS011;65693;49.798;10.968;2023-03-01T14:24:20;10.63;;;7.32;;
49972;SDS011;65693;49.798;10.968;2023-03-01T14:26:49;10.80;;;7.80;;
49972;SDS011;65693;49.798;10.968;2023-03-01T14:29:27;11.18;;;7.72;;
49972;SDS011;65693;49.798;10.968;2023-03-01T14:32:10;9.45;;;7.57;;
49972;SDS011;65693;49.798;10.968;2023-03-01T14:34:43;10.15;;;7.85;;
49972;SDS011;65693;49.798;10.968;2023-03-01T14:37:18;9.90;;;7.25;;
49972;SDS011;65693;49.798;10.968;2023-03-01T14:39:48;10.85;;;7.80;;
49972;SDS011;65693;49.798;10.968;2023-03-01T14:42:19;12.20;;;7.30;;
49972;SDS011;65693;49.798;10.968;2023-03-01T14:44:49;11.75;;;8.13;;
49972;SDS011;65693;49.798;10.968;2023-03-01T14:47:25;9.77;;;7.00;;
49972;SDS011;65693;49.798;10.968;2023-03-01T14:49:57;10.75;;;7.25;;
49972;SDS011;65693;49.798;10.968;2023-03-01T14:52:32;10.77;;;7.53;;
49972;SDS011;65693;49.798;10.968;2023-03-01T14:55:13;12.50;;;7.82;;
49972;SDS011;65693;49.798;10.968;2023-03-01T14:57:45;12.07;;;7.93;;
49972;SDS011;65693;49.798;10.968;2023-03-01T15:00:19;9.40;;;7.60;;
49972;SDS011;65693;49.798;10.968;2023-03-01T15:02:54;12.77;;;8.02;;
49972;SDS011;65693;49.798;10.968;2023-03-01T15:05:27;9.60;;;7.38;;
49972;SDS011;65693;49.798;10.968;2023-03-01T15:08:02;10.10;;;7.50;;
49972;SDS011;65693;49.798;10.968;2023-03-01T15:10:33;11.38;;;7.78;;
49972;SDS011;65693;49.798;10.968;2023-03-01T15:13:11;10.70;;;7.70;;
49972;SDS011;65693;49.798;10.968;2023-03-01T15:15:40;12.05;;;7.43;;
49972;SDS011;65693;49.798;10.968;2023-03-01T15:18:17;10.27;;;7.20;;
49972;SDS011;65693;49.798;10.968;2023-03-01T15:20:45;10.63;;;7.55;;
49972;SDS011;65693;49.798;10.968;2023-03-01T15:23:18;10.40;;;7.45;;